Time;durP1;ratioP1;P1;durP2;ratioP2;P2;SDS_P1;SDS_P2;PMS_P1;PMS_P2;Temp;Humidity;BMP_temperature;BMP_pressure;BME280_temperature;BME280_humidity;BME280_pressure;Samples;Min_cycle;Max_cycle;Signal;HPM_P1;HPM_P2
2022/08/29 00:01:10;;;;;;;2.83;1.60;;;17.30;54.80;;;;;;4981966;28;20136;-80
2022/08/29 00:03:35;;;;;;;2.58;1.10;;;17.20;54.80;;;;;;4992527;28;20728;-79
2022/08/29 00:06:01;;;;;;;3.60;1.08;;;17.20;54.90;;;;;;4990431;28;20049;-79
2022/08/29 00:08:27;;;;;;;2.40;1.30;;;17.20;55.10;;;;;;4981054;28;20718;-80
2022/08/29 00:10:52;;;;;;;2.92;1.10;;;17.10;55.10;;;;;;5018286;28;20604;-79
2022/08/29 00:13:18;;;;;;;4.93;1.40;;;17.00;55.20;;;;;;5003156;28;20068;-79
2022/08/29 00:15:44;;;;;;;2.55;1.23;;;17.00;55.30;;;;;;4996162;28;20045;-80
2022/08/29 00:18:09;;;;;;;5.07;1.30;;;17.00;55.40;;;;;;5015396;28;20053;-79
2022/08/29 00:20:36;;;;;;;6.18;1.50;;;17.00;55.50;;;;;;5018262;28;20816;-80
2022/08/29 00:23:02;;;;;;;3.75;1.13;;;16.90;55.50;;;;;;4990770;28;20025;-80
2022/08/29 00:25:28;;;;;;;2.90;1.15;;;16.90;55.70;;;;;;4990326;28;20094;-80
2022/08/29 00:27:53;;;;;;;3.75;1.52;;;16.80;55.80;;;;;;4979943;28;20042;-81
2022/08/29 00:30:19;;;;;;;3.90;0.88;;;16.80;55.80;;;;;;4975436;28;20029;-79
2022/08/29 00:32:45;;;;;;;3.08;1.23;;;16.80;56.00;;;;;;4988122;28;20105;-80
2022/08/29 00:35:16;;;;;;;6.22;1.13;;;16.70;56.10;;;;;;4986331;28;20798;-81
2022/08/29 00:37:42;;;;;;;4.45;1.27;;;16.60;56.20;;;;;;4975854;28;20121;-80
2022/08/29 00:40:10;;;;;;;2.75;1.02;;;16.60;56.30;;;;;;4980493;28;20128;-80
2022/08/29 00:42:35;;;;;;;5.65;1.00;;;16.60;56.40;;;;;;4999115;28;20084;-79
2022/08/29 00:45:02;;;;;;;2.15;1.30;;;16.60;56.50;;;;;;4997622;28;20041;-80
2022/08/29 00:47:31;;;;;;;3.78;1.42;;;16.50;56.50;;;;;;4971878;28;20447;-80
2022/08/29 00:49:57;;;;;;;1.85;1.27;;;16.50;56.70;;;;;;4978480;28;20069;-80
2022/08/29 00:52:36;;;;;;;4.47;1.13;;;16.40;56.80;;;;;;4988580;28;20120;-80
2022/08/29 00:55:04;;;;;;;3.22;1.00;;;16.40;57.10;;;;;;5012718;28;20041;-79
2022/08/29 00:57:30;;;;;;;5.75;1.30;;;16.40;56.90;;;;;;4976640;28;20034;-80
2022/08/29 00:59:56;;;;;;;2.28;1.08;;;16.30;56.90;;;;;;4992723;28;20033;-80
2022/08/29 01:02:21;;;;;;;3.90;1.33;;;16.30;57.10;;;;;;4995684;28;20613;-80
2022/08/29 01:04:47;;;;;;;2.47;1.20;;;16.30;57.20;;;;;;4998258;28;20111;-80
2022/08/29 01:07:12;;;;;;;3.53;1.00;;;16.20;57.90;;;;;;5005387;28;20537;-80
2022/08/29 01:09:38;;;;;;;2.65;1.10;;;16.20;57.40;;;;;;4976847;28;20109;-80
2022/08/29 01:12:16;;;;;;;4.55;1.23;;;16.10;57.40;;;;;;5006628;28;20061;-81
2022/08/29 01:14:46;;;;;;;2.42;1.27;;;16.10;57.50;;;;;;4999135;28;20103;-79
2022/08/29 01:17:12;;;;;;;2.83;1.30;;;16.00;57.50;;;;;;5005233;28;20035;-79
2022/08/29 01:19:47;;;;;;;2.47;1.20;;;16.00;57.60;;;;;;4974746;28;20103;-80
2022/08/29 01:22:18;;;;;;;6.55;1.25;;;16.00;57.90;;;;;;4979793;28;20663;-80
2022/08/29 01:24:49;;;;;;;;;;;16.00;57.90;;;;;;5004189;28;20042;-79
2022/08/29 01:27:15;;;;;;;3.05;1.38;;;15.90;57.80;;;;;;4995190;28;19921;-79
2022/08/29 01:29:40;;;;;;;4.85;1.42;;;15.90;57.80;;;;;;5011674;28;20038;-79
2022/08/29 01:32:06;;;;;;;4.32;1.30;;;15.90;57.90;;;;;;5002256;28;20038;-79
2022/08/29 01:34:31;;;;;;;2.55;1.30;;;15.80;58.10;;;;;;4990604;28;20044;-80
2022/08/29 01:36:59;;;;;;;3.50;1.40;;;15.80;58.20;;;;;;4976180;28;20115;-80
2022/08/29 01:39:27;;;;;;;2.47;1.17;;;15.80;58.30;;;;;;4992935;28;20096;-80
2022/08/29 01:41:53;;;;;;;3.42;1.27;;;15.70;58.40;;;;;;4997401;28;20030;-79
2022/08/29 01:44:19;;;;;;;3.13;1.30;;;15.70;58.60;;;;;;4975144;28;20042;-80
2022/08/29 01:46:46;;;;;;;3.22;1.45;;;15.60;58.70;;;;;;4971795;28;20044;-80
2022/08/29 01:49:12;;;;;;;2.92;1.35;;;15.60;58.70;;;;;;4975628;28;20038;-79
2022/08/29 01:51:38;;;;;;;3.13;1.30;;;15.60;58.80;;;;;;4997127;28;20042;-79
2022/08/29 01:54:07;;;;;;;2.55;1.23;;;15.60;59.00;;;;;;4983337;28;20084;-79
2022/08/29 01:56:34;;;;;;;2.92;1.15;;;15.50;59.00;;;;;;4985426;28;20077;-80
2022/08/29 01:59:01;;;;;;;3.90;1.40;;;15.50;59.10;;;;;;4975723;28;20052;-79
2022/08/29 02:01:30;;;;;;;3.40;1.40;;;15.50;59.20;;;;;;5003401;28;20030;-79
2022/08/29 02:03:57;;;;;;;2.72;1.27;;;15.40;59.20;;;;;;4977857;28;20061;-79
2022/08/29 02:06:23;;;;;;;4.18;1.40;;;15.50;59.40;;;;;;4985949;28;20037;-80
2022/08/29 02:08:48;;;;;;;3.10;1.42;;;15.40;59.50;;;;;;5000452;28;20030;-79
2022/08/29 02:11:16;;;;;;;3.30;1.40;;;15.40;59.60;;;;;;4998439;28;20037;-80
2022/08/29 02:13:47;;;;;;;4.50;1.40;;;15.30;59.60;;;;;;4977074;28;20362;-82
2022/08/29 02:16:13;;;;;;;2.45;1.40;;;15.30;59.70;;;;;;5004250;28;20470;-81
2022/08/29 02:18:41;;;;;;;3.00;1.90;;;15.30;59.80;;;;;;4996073;28;20717;-79
2022/08/29 02:21:07;;;;;;;2.50;1.48;;;15.30;59.80;;;;;;4990241;28;20121;-81
2022/08/29 02:23:33;;;;;;;3.42;1.50;;;15.20;59.90;;;;;;4985760;28;20129;-80
2022/08/29 02:25:59;;;;;;;2.78;1.38;;;15.20;60.00;;;;;;4992326;28;20038;-81
2022/08/29 02:28:24;;;;;;;2.88;1.20;;;15.20;60.10;;;;;;4993063;28;20563;-81
2022/08/29 02:30:51;;;;;;;4.75;1.38;;;15.20;60.20;;;;;;4991247;28;20030;-80
2022/08/29 02:33:17;;;;;;;2.70;1.27;;;15.10;60.40;;;;;;4990932;28;20061;-81
2022/08/29 02:35:43;;;;;;;4.82;1.30;;;15.10;60.20;;;;;;4994437;28;20112;-80
2022/08/29 02:38:08;;;;;;;2.60;1.75;;;15.10;60.50;;;;;;5000072;28;20042;-80
2022/08/29 02:40:34;;;;;;;3.78;1.50;;;15.10;60.60;;;;;;4980258;28;20057;-80
2022/08/29 02:42:59;;;;;;;3.00;1.40;;;15.00;60.60;;;;;;4993085;28;20037;-80
2022/08/29 02:45:25;;;;;;;5.63;1.63;;;15.00;60.70;;;;;;4992729;28;20033;-80
2022/08/29 02:47:51;;;;;;;3.90;1.58;;;15.00;60.80;;;;;;5001804;28;20579;-79
2022/08/29 02:50:17;;;;;;;4.35;1.88;;;14.90;60.80;;;;;;4995414;28;20046;-79
2022/08/29 02:52:42;;;;;;;5.03;1.50;;;14.90;61.00;;;;;;4998176;28;20507;-79
2022/08/29 02:55:10;;;;;;;5.43;1.35;;;14.90;61.10;;;;;;4998065;28;20030;-79
2022/08/29 02:57:36;;;;;;;3.25;1.20;;;14.80;61.10;;;;;;4997898;28;20049;-80
2022/08/29 03:00:03;;;;;;;3.85;1.30;;;14.80;61.10;;;;;;4990512;28;20140;-80
2022/08/29 03:02:29;;;;;;;4.88;1.60;;;14.80;61.30;;;;;;4985594;28;20045;-81
2022/08/29 03:04:55;;;;;;;3.80;1.35;;;14.80;61.50;;;;;;5005693;28;20026;-80
2022/08/29 03:07:20;;;;;;;2.38;1.08;;;14.80;61.40;;;;;;4996514;28;20034;-81
2022/08/29 03:09:46;;;;;;;2.58;1.30;;;14.70;61.50;;;;;;4989374;28;20576;-80
2022/08/29 03:12:11;;;;;;;3.95;1.40;;;14.70;61.60;;;;;;5001984;28;20045;-80
2022/08/29 03:14:37;;;;;;;2.70;1.40;;;14.70;62.20;;;;;;5009039;28;20042;-80
2022/08/29 03:17:03;;;;;;;3.17;1.30;;;14.60;61.90;;;;;;5011545;28;20064;-80
2022/08/29 03:19:28;;;;;;;4.40;1.38;;;14.60;62.00;;;;;;4999894;28;20237;-81
2022/08/29 03:21:54;;;;;;;2.67;1.65;;;14.60;62.00;;;;;;4990117;28;20042;-79
2022/08/29 03:24:19;;;;;;;3.22;1.45;;;14.60;62.10;;;;;;5010522;28;20034;-80
2022/08/29 03:26:45;;;;;;;3.38;1.50;;;14.50;62.10;;;;;;4981139;28;20038;-81
2022/08/29 03:29:10;;;;;;;3.20;1.70;;;14.50;62.20;;;;;;5001746;28;20539;-80
2022/08/29 03:31:36;;;;;;;3.83;1.30;;;14.50;62.40;;;;;;4996804;28;20523;-80
2022/08/29 03:34:01;;;;;;;6.40;1.58;;;14.50;62.50;;;;;;5008725;28;20061;-79
2022/08/29 03:36:27;;;;;;;4.30;1.27;;;14.50;62.50;;;;;;5019760;28;20064;-80
2022/08/29 03:38:52;;;;;;;4.68;1.52;;;14.50;62.60;;;;;;5004140;28;20076;-81
2022/08/29 03:41:22;;;;;;;2.72;1.23;;;14.40;62.60;;;;;;4993415;28;20041;-81
2022/08/29 03:43:47;;;;;;;7.43;1.70;;;14.40;62.90;;;;;;5016746;28;20120;-80
2022/08/29 03:46:13;;;;;;;5.22;1.45;;;14.40;63.00;;;;;;4984041;28;20099;-80
2022/08/29 03:48:38;;;;;;;4.32;1.48;;;14.30;62.90;;;;;;4970206;28;20811;-79
2022/08/29 03:51:04;;;;;;;2.13;1.13;;;14.30;63.00;;;;;;5001627;28;20034;-81
2022/08/29 03:53:31;;;;;;;3.80;1.40;;;14.30;63.10;;;;;;4998803;28;20034;-79
2022/08/29 03:55:56;;;;;;;2.58;1.33;;;14.30;63.20;;;;;;4995221;28;20030;-81
2022/08/29 03:58:22;;;;;;;3.35;1.60;;;14.30;63.30;;;;;;4995474;28;20060;-80
2022/08/29 04:00:48;;;;;;;1.60;1.13;;;14.20;63.30;;;;;;4997434;28;20045;-81
2022/08/29 04:03:13;;;;;;;3.55;1.42;;;14.20;63.40;;;;;;4998952;28;20042;-79
2022/08/29 04:05:39;;;;;;;4.70;1.48;;;14.10;63.40;;;;;;5001954;28;20054;-81
2022/08/29 04:08:04;;;;;;;4.45;1.30;;;14.10;63.50;;;;;;4983332;28;20066;-79
2022/08/29 04:10:32;;;;;;;4.75;1.35;;;14.10;63.60;;;;;;5005517;28;20038;-81
2022/08/29 04:12:57;;;;;;;3.20;1.40;;;14.10;63.60;;;;;;4978429;28;20061;-80
2022/08/29 04:15:24;;;;;;;2.55;1.20;;;14.10;63.80;;;;;;5006284;28;20049;-79
2022/08/29 04:17:54;;;;;;;3.40;1.40;;;14.10;63.90;;;;;;4986019;28;20126;-79
2022/08/29 04:20:21;;;;;;;4.70;1.60;;;14.00;63.80;;;;;;4993685;28;20034;-80
2022/08/29 04:22:47;;;;;;;3.10;1.50;;;14.00;64.00;;;;;;4977753;28;20458;-79
2022/08/29 04:25:13;;;;;;;4.55;1.73;;;14.00;64.10;;;;;;4998218;28;20030;-80
2022/08/29 04:27:40;;;;;;;6.25;2.03;;;14.00;64.00;;;;;;5002028;28;20534;-80
2022/08/29 04:30:08;;;;;;;3.28;1.38;;;14.00;64.10;;;;;;4963574;28;20038;-80
2022/08/29 04:32:34;;;;;;;4.55;1.50;;;13.90;64.20;;;;;;4999628;28;20436;-80
2022/08/29 04:34:59;;;;;;;3.00;1.30;;;13.90;65.10;;;;;;4993884;28;20037;-79
2022/08/29 04:37:25;;;;;;;5.13;1.55;;;13.90;64.40;;;;;;4996779;28;20045;-80
2022/08/29 04:39:50;;;;;;;2.42;1.42;;;13.90;64.40;;;;;;4983444;28;20033;-79
2022/08/29 04:42:17;;;;;;;2.78;1.48;;;13.80;64.60;;;;;;4980680;28;20034;-79
2022/08/29 04:44:43;;;;;;;2.35;1.25;;;13.80;64.80;;;;;;4991193;28;20021;-80
2022/08/29 04:47:08;;;;;;;4.95;1.40;;;13.80;64.80;;;;;;5001507;28;20038;-80
2022/08/29 04:49:34;;;;;;;2.75;1.35;;;13.80;65.00;;;;;;4997535;28;20098;-79
2022/08/29 04:51:59;;;;;;;3.00;1.73;;;13.80;65.10;;;;;;4998680;28;20029;-80
2022/08/29 04:54:25;;;;;;;2.17;1.33;;;13.80;65.10;;;;;;5004611;28;20037;-79
2022/08/29 04:56:50;;;;;;;3.30;1.40;;;13.70;65.10;;;;;;4984361;28;20042;-81
2022/08/29 04:59:16;;;;;;;3.67;1.40;;;13.70;65.20;;;;;;5015219;28;20035;-79
2022/08/29 05:01:42;;;;;;;2.08;1.10;;;13.70;66.10;;;;;;4976734;28;20124;-81
2022/08/29 05:04:07;;;;;;;5.65;1.83;;;13.70;65.40;;;;;;4999911;28;20169;-80
2022/08/29 05:06:33;;;;;;;5.40;1.50;;;13.60;65.50;;;;;;5013357;28;20095;-79
2022/08/29 05:08:58;;;;;;;3.22;1.23;;;13.70;65.60;;;;;;5008547;28;20053;-80
2022/08/29 05:11:24;;;;;;;2.33;1.20;;;13.60;65.70;;;;;;5007187;28;20037;-81
2022/08/29 05:13:52;;;;;;;3.22;1.35;;;13.60;65.90;;;;;;4991856;28;20033;-80
2022/08/29 05:16:17;;;;;;;2.65;1.50;;;13.60;66.00;;;;;;4988494;28;20034;-80
2022/08/29 05:18:44;;;;;;;3.88;1.33;;;13.60;66.10;;;;;;4986511;28;20549;-80
2022/08/29 05:21:11;;;;;;;2.13;1.45;;;13.60;66.30;;;;;;5015486;28;20030;-79
2022/08/29 05:23:37;;;;;;;3.15;1.60;;;13.60;66.40;;;;;;5012450;28;20374;-81
2022/08/29 05:26:04;;;;;;;5.47;1.50;;;13.60;66.40;;;;;;5004060;28;20625;-80
2022/08/29 05:28:30;;;;;;;3.80;1.55;;;13.60;66.60;;;;;;5007114;28;20491;-80
2022/08/29 05:30:55;;;;;;;4.45;1.73;;;13.60;66.60;;;;;;4978643;28;20052;-80
2022/08/29 05:33:21;;;;;;;3.63;1.60;;;13.70;66.80;;;;;;4996998;28;20065;-80
2022/08/29 05:35:47;;;;;;;4.70;1.73;;;13.60;66.70;;;;;;4997482;28;20031;-80
2022/08/29 05:38:13;;;;;;;4.15;1.50;;;13.70;66.90;;;;;;4977354;28;20030;-81
2022/08/29 05:40:39;;;;;;;2.67;1.42;;;13.70;67.00;;;;;;4990376;28;20034;-81
2022/08/29 05:43:05;;;;;;;4.60;1.35;;;13.70;67.00;;;;;;4975376;28;20369;-80
2022/08/29 05:45:31;;;;;;;4.80;1.73;;;13.70;67.10;;;;;;4970883;28;20132;-81
2022/08/29 05:47:57;;;;;;;10.13;2.55;;;13.70;67.30;;;;;;4995586;28;20030;-81
2022/08/29 05:50:22;;;;;;;6.00;2.20;;;13.80;67.40;;;;;;4986621;28;20037;-80
2022/08/29 05:52:48;;;;;;;3.00;1.95;;;13.80;67.50;;;;;;4974948;28;20064;-80
2022/08/29 05:55:13;;;;;;;5.28;1.65;;;13.90;67.60;;;;;;5003209;28;20038;-81
2022/08/29 05:57:39;;;;;;;6.95;1.50;;;13.90;67.50;;;;;;4965579;28;20136;-81
2022/08/29 06:00:07;;;;;;;6.63;1.80;;;14.00;67.50;;;;;;5004508;28;20088;-80
2022/08/29 06:02:32;;;;;;;2.92;1.95;;;14.00;67.50;;;;;;4974696;28;20029;-80
2022/08/29 06:04:58;;;;;;;4.90;1.52;;;14.00;67.60;;;;;;4983120;28;20034;-80
2022/08/29 06:07:24;;;;;;;4.38;1.80;;;14.10;67.70;;;;;;4968115;28;20038;-80
2022/08/29 06:09:51;;;;;;;4.78;1.80;;;14.20;67.70;;;;;;4982166;28;20061;-81
2022/08/29 06:12:17;;;;;;;5.10;1.90;;;14.20;67.60;;;;;;5014126;28;20033;-80
2022/08/29 06:14:43;;;;;;;8.93;1.90;;;14.30;67.70;;;;;;4983792;28;20099;-80
2022/08/29 06:17:09;;;;;;;3.60;1.63;;;14.40;67.60;;;;;;4992384;28;20078;-79
2022/08/29 06:19:34;;;;;;;4.97;1.75;;;14.60;67.60;;;;;;4996973;28;20148;-79
2022/08/29 06:22:02;;;;;;;8.77;2.20;;;14.60;67.40;;;;;;5000336;28;20121;-80
2022/08/29 06:24:30;;;;;;;5.10;1.98;;;14.70;67.30;;;;;;5001056;28;20030;-79
2022/08/29 06:26:56;;;;;;;5.55;1.58;;;14.80;67.10;;;;;;4984783;28;20040;-79
2022/08/29 06:29:22;;;;;;;6.18;1.63;;;14.90;67.00;;;;;;4997010;28;20033;-79
2022/08/29 06:31:47;;;;;;;2.92;1.50;;;15.00;66.90;;;;;;5008032;28;20041;-80
2022/08/29 06:34:13;;;;;;;5.93;1.75;;;15.10;66.80;;;;;;4999735;28;20072;-80
2022/08/29 06:36:39;;;;;;;4.10;1.45;;;15.10;66.50;;;;;;5000731;28;20038;-80
2022/08/29 06:39:06;;;;;;;4.60;2.03;;;15.30;66.50;;;;;;5001361;28;20096;-80
2022/08/29 06:41:32;;;;;;;6.63;1.63;;;15.40;66.40;;;;;;4996703;28;20070;-80
2022/08/29 06:43:57;;;;;;;7.85;1.20;;;15.50;66.20;;;;;;4995824;28;20473;-79
2022/08/29 06:46:24;;;;;;;5.97;2.00;;;15.60;66.10;;;;;;4997402;28;20038;-80
2022/08/29 06:48:50;;;;;;;3.70;1.85;;;15.70;65.90;;;;;;5000930;28;20037;-80
2022/08/29 06:51:15;;;;;;;11.32;2.15;;;15.90;65.70;;;;;;4996386;28;20392;-80
2022/08/29 06:53:41;;;;;;;6.50;1.50;;;16.00;65.60;;;;;;4994340;28;20056;-79
2022/08/29 06:56:06;;;;;;;8.40;1.67;;;16.10;65.30;;;;;;4970146;28;20129;-80
2022/08/29 06:58:33;;;;;;;4.55;1.63;;;16.30;65.20;;;;;;4979491;28;20129;-79
2022/08/29 07:01:03;;;;;;;7.15;1.60;;;16.40;64.90;;;;;;4998654;28;20096;-80
2022/08/29 07:03:28;;;;;;;6.63;1.60;;;16.60;64.70;;;;;;4981791;28;20093;-80
2022/08/29 07:05:54;;;;;;;5.57;1.83;;;16.70;64.40;;;;;;4981839;28;20536;-80
2022/08/29 07:08:19;;;;;;;5.63;1.48;;;16.90;64.30;;;;;;4997983;28;20589;-80
2022/08/29 07:10:45;;;;;;;4.30;1.50;;;17.00;63.90;;;;;;4974146;28;20121;-80
2022/08/29 07:13:10;;;;;;;4.57;1.13;;;17.20;63.70;;;;;;4986627;28;20026;-80
2022/08/29 07:15:36;;;;;;;4.32;2.13;;;17.40;63.50;;;;;;4997921;28;20056;-80
2022/08/29 07:18:02;;;;;;;4.72;1.20;;;17.50;63.20;;;;;;4998850;28;20014;-80
2022/08/29 07:20:29;;;;;;;5.25;1.45;;;17.70;62.90;;;;;;4998980;28;20566;-80
2022/08/29 07:22:54;;;;;;;5.65;1.40;;;17.90;62.60;;;;;;5012405;28;20110;-79
2022/08/29 07:25:20;;;;;;;4.75;1.48;;;18.00;62.30;;;;;;4961357;28;20058;-80
2022/08/29 07:27:46;;;;;;;10.00;1.75;;;18.20;62.00;;;;;;4980297;28;20029;-80
2022/08/29 07:30:15;;;;;;;4.72;1.63;;;18.40;61.70;;;;;;4975634;28;20029;-80
2022/08/29 07:32:43;;;;;;;4.50;1.63;;;18.50;61.20;;;;;;4996797;28;20026;-79
2022/08/29 07:35:10;;;;;;;4.45;1.60;;;18.70;60.90;;;;;;4995897;28;20033;-80
2022/08/29 07:37:35;;;;;;;7.32;1.77;;;18.90;60.60;;;;;;4996809;28;20069;-80
2022/08/29 07:40:01;;;;;;;6.57;1.80;;;19.10;60.30;;;;;;4984795;28;20107;-81
2022/08/29 07:42:26;;;;;;;3.20;1.38;;;19.30;59.90;;;;;;5001100;28;20057;-80
2022/08/29 07:44:52;;;;;;;4.85;1.40;;;19.40;59.50;;;;;;4985780;28;20117;-80
2022/08/29 07:47:18;;;;;;;4.90;1.40;;;19.60;59.30;;;;;;4990007;28;20096;-81
2022/08/29 07:49:43;;;;;;;4.57;1.88;;;19.80;59.00;;;;;;4991299;28;20049;-80
2022/08/29 07:52:09;;;;;;;5.35;1.58;;;19.90;58.60;;;;;;5006869;28;20040;-80
2022/08/29 07:54:34;;;;;;;4.05;1.90;;;20.10;58.20;;;;;;4995867;28;20042;-81
2022/08/29 07:57:00;;;;;;;6.05;1.60;;;20.30;57.80;;;;;;5018226;28;20034;-81
2022/08/29 07:59:26;;;;;;;5.07;1.98;;;20.40;57.40;;;;;;4990672;28;20033;-81
2022/08/29 08:01:52;;;;;;;7.30;1.75;;;20.60;57.10;;;;;;4997159;28;20548;-80
2022/08/29 08:04:17;;;;;;;5.05;1.25;;;20.80;56.80;;;;;;5000178;28;20057;-80
2022/08/29 08:06:44;;;;;;;4.07;2.00;;;21.00;56.70;;;;;;5001874;28;20034;-80
2022/08/29 08:09:10;;;;;;;6.32;1.73;;;21.20;56.30;;;;;;4997588;28;20030;-80
2022/08/29 08:11:36;;;;;;;6.13;2.03;;;21.40;55.90;;;;;;4986343;28;20162;-80
2022/08/29 08:14:01;;;;;;;5.80;1.80;;;21.50;55.50;;;;;;4989501;28;20594;-81
2022/08/29 08:16:27;;;;;;;6.82;2.00;;;21.70;55.30;;;;;;4997263;28;20818;-80
2022/08/29 08:18:53;;;;;;;7.53;2.10;;;21.90;55.00;;;;;;5001646;28;20026;-81
2022/08/29 08:21:18;;;;;;;3.58;1.50;;;22.10;54.50;;;;;;4971861;28;20057;-82
2022/08/29 08:23:44;;;;;;;6.88;1.92;;;22.30;54.10;;;;;;4989448;28;20034;-81
2022/08/29 08:26:10;;;;;;;3.97;1.75;;;22.50;53.90;;;;;;5004819;28;20034;-81
2022/08/29 08:28:36;;;;;;;3.75;1.77;;;22.70;53.50;;;;;;4988710;28;20025;-81
2022/08/29 08:31:03;;;;;;;6.45;1.70;;;22.90;53.10;;;;;;4998145;28;20254;-81
2022/08/29 08:33:29;;;;;;;4.65;2.00;;;23.10;52.70;;;;;;4994507;28;20021;-81
2022/08/29 08:35:56;;;;;;;6.00;1.92;;;23.30;52.40;;;;;;4989394;28;20399;-81
2022/08/29 08:38:21;;;;;;;3.63;1.70;;;23.50;52.10;;;;;;5005191;28;20038;-81
2022/08/29 08:41:00;;;;;;;5.28;1.65;;;23.70;51.60;;;;;;5007567;28;20030;-81
2022/08/29 08:43:30;;;;;;;5.50;1.70;;;23.90;51.10;;;;;;5005596;28;20040;-82
2022/08/29 08:45:56;;;;;;;6.80;1.77;;;24.10;51.00;;;;;;4986337;28;20100;-82
2022/08/29 08:48:23;;;;;;;4.70;1.60;;;24.30;50.80;;;;;;5002729;28;20269;-81
2022/08/29 08:50:53;;;;;;;7.85;1.85;;;24.50;50.30;;;;;;4984043;28;20122;-81
2022/08/29 08:53:34;;;;;;;5.35;1.92;;;24.70;50.00;;;;;;4995136;28;20512;-81
2022/08/29 08:56:04;;;;;;;3.83;1.75;;;24.90;49.60;;;;;;5013666;28;20148;-81
2022/08/29 08:58:48;;;;;;;4.37;1.80;;;25.20;49.20;;;;;;5000435;28;20044;-81
2022/08/29 09:01:25;;;;;;;5.40;1.80;;;25.40;49.00;;;;;;5005198;28;21260;-81
2022/08/29 09:04:05;;;;;;;4.32;2.10;;;25.50;48.60;;;;;;4990281;28;20620;-81
2022/08/29 09:06:43;;;;;;;4.85;1.73;;;25.70;47.70;;;;;;4971635;28;20027;-81
2022/08/29 09:09:27;;;;;;;4.70;1.98;;;25.90;47.50;;;;;;4986144;28;20030;-82
2022/08/29 09:12:31;;;;;;;11.52;2.42;;;26.10;47.70;;;;;;5003602;28;20040;-81
2022/08/29 09:15:06;;;;;;;8.02;1.85;;;26.30;46.60;;;;;;4987274;28;20048;-82
2022/08/29 09:17:49;;;;;;;6.43;1.98;;;26.40;46.90;;;;;;5001796;28;20044;-82
2022/08/29 09:20:19;;;;;;;5.05;1.60;;;26.60;46.70;;;;;;5019607;28;20103;-82
2022/08/29 09:22:51;;;;;;;6.55;1.67;;;26.90;46.60;;;;;;4984701;28;20117;-82
2022/08/29 09:25:17;;;;;;;2.92;1.80;;;27.00;46.80;;;;;;4996627;28;20121;-81
2022/08/29 09:27:43;;;;;;;4.20;1.90;;;27.20;45.80;;;;;;5011618;28;20116;-82
2022/08/29 09:30:30;;;;;;;11.60;2.35;;;27.40;45.50;;;;;;4982339;28;20130;-83
2022/08/29 09:32:56;;;;;;;5.88;1.98;;;27.60;44.70;;;;;;4973110;28;20034;-82
2022/08/29 09:35:28;;;;;;;4.10;1.75;;;27.70;44.90;;;;;;5001705;28;20061;-82
2022/08/29 09:38:02;;;;;;;9.40;1.98;;;27.70;44.40;;;;;;4955648;28;20068;-82
2022/08/29 09:40:46;;;;;;;5.57;2.28;;;27.90;44.40;;;;;;4988486;28;20038;-82
2022/08/29 09:43:30;;;;;;;17.98;2.60;;;28.10;43.60;;;;;;4998268;28;20021;-82
2022/08/29 09:46:17;;;;;;;4.97;1.67;;;28.30;43.50;;;;;;4982653;28;20028;-82
2022/08/29 09:48:48;;;;;;;6.22;1.75;;;28.50;43.00;;;;;;4996277;28;20387;-82
2022/08/29 09:51:39;;;;;;;4.05;2.10;;;28.60;43.30;;;;;;4973471;28;20530;-83
2022/08/29 09:54:17;;;;;;;4.00;1.95;;;28.70;42.70;;;;;;4984565;28;20131;-82
2022/08/29 09:56:55;;;;;;;9.27;2.33;;;28.80;42.50;;;;;;4992512;28;20202;-83
2022/08/29 09:59:28;;;;;;;4.68;1.63;;;29.00;41.60;;;;;;4998181;28;20042;-82
2022/08/29 10:02:25;;;;;;;7.85;2.03;;;29.20;41.80;;;;;;4991131;28;20032;-82
2022/08/29 10:04:53;;;;;;;4.25;1.70;;;29.30;41.00;;;;;;4999928;28;20651;-82
2022/08/29 10:07:23;;;;;;;5.00;1.92;;;29.40;42.30;;;;;;4996941;28;20042;-82
2022/08/29 10:09:59;;;;;;;10.55;2.58;;;29.50;41.10;;;;;;4982691;28;20029;-82
2022/08/29 10:12:47;;;;;;;5.68;2.03;;;29.60;40.90;;;;;;5009855;28;20046;-83
2022/08/29 10:15:21;;;;;;;4.93;1.95;;;29.70;39.60;;;;;;4968697;28;20048;-82
2022/08/29 10:20:49;;;;;;;5.03;1.65;;;29.80;40.10;;;;;;4989853;28;20084;-83
2022/08/29 10:23:26;;;;;;;3.58;1.40;;;30.00;40.00;;;;;;5001277;28;20040;-82
2022/08/29 10:25:52;;;;;;;4.88;1.60;;;30.10;39.50;;;;;;4967665;28;20714;-82
2022/08/29 10:28:45;;;;;;;7.05;2.53;;;30.20;39.70;;;;;;4980473;28;20061;-82
2022/08/29 10:31:19;;;;;;;5.05;1.70;;;30.40;38.70;;;;;;5017172;28;20026;-82
2022/08/29 10:34:06;;;;;;;4.38;1.55;;;30.50;39.10;;;;;;4983230;28;20651;-82
2022/08/29 10:36:34;;;;;;;5.93;1.73;;;30.60;39.10;;;;;;4996386;28;20079;-83
2022/08/29 10:39:21;;;;;;;4.95;1.85;;;30.80;39.00;;;;;;4980402;28;20781;-81
2022/08/29 10:41:55;;;;;;;5.63;1.92;;;30.90;38.30;;;;;;4973007;28;20041;-82
2022/08/29 10:44:23;;;;;;;4.05;1.92;;;31.00;38.30;;;;;;5004504;28;20040;-84
2022/08/29 10:47:20;;;;;;;7.57;2.28;;;31.10;38.10;;;;;;5014505;28;20037;-82
2022/08/29 10:50:16;;;;;;;7.25;1.88;;;31.10;37.10;;;;;;4965827;28;20579;-82
2022/08/29 10:53:02;;;;;;;5.00;1.55;;;31.20;37.00;;;;;;5000211;28;20439;-82
2022/08/29 10:55:48;;;;;;;4.75;1.55;;;31.30;37.00;;;;;;4998270;28;20091;-83
2022/08/29 10:58:25;;;;;;;4.22;1.90;;;31.30;36.60;;;;;;4998499;28;20388;-82
2022/08/29 11:00:55;;;;;;;5.35;2.03;;;31.40;36.70;;;;;;4978160;28;20038;-83
2022/08/29 11:03:26;;;;;;;6.90;1.75;;;31.50;36.90;;;;;;4977306;28;20065;-82
2022/08/29 11:05:56;;;;;;;4.07;2.13;;;31.50;37.00;;;;;;5000926;28;20654;-83
2022/08/29 11:08:30;;;;;;;4.30;1.80;;;31.60;36.80;;;;;;4999363;28;20053;-82
2022/08/29 11:10:56;;;;;;;4.45;1.45;;;31.80;36.50;;;;;;4980208;28;20543;-82
2022/08/29 11:13:29;;;;;;;4.35;2.17;;;31.90;36.50;;;;;;4999985;28;20030;-82
2022/08/29 11:16:42;;;;;;;6.20;2.10;;;32.00;35.90;;;;;;5003692;28;20424;-82
2022/08/29 11:19:30;;;;;;;5.47;2.10;;;32.20;35.10;;;;;;5012133;23;20058;-77
2022/08/29 11:22:11;;;;;;;7.32;2.45;;;32.50;35.00;;;;;;4983826;28;20044;-78
2022/08/29 11:24:37;;;;;;;3.80;2.10;;;32.70;35.40;;;;;;4998385;28;20043;-78
2022/08/29 11:27:14;;;;;;;5.75;2.38;;;32.80;35.40;;;;;;4987338;28;20050;-77
2022/08/29 11:30:06;;;;;;;4.20;2.47;;;32.90;34.80;;;;;;4979761;28;20065;-77
2022/08/29 11:32:58;;;;;;;6.45;1.80;;;33.10;34.80;;;;;;4987938;28;20050;-77
2022/08/29 11:35:39;;;;;;;6.50;2.20;;;33.20;34.60;;;;;;4954040;28;20030;-78
2022/08/29 11:38:23;;;;;;;4.25;1.40;;;33.20;33.80;;;;;;4988323;28;21064;-77
2022/08/29 11:41:14;;;;;;;5.55;2.10;;;33.10;33.20;;;;;;4993575;28;20556;-78
2022/08/29 11:43:41;;;;;;;5.75;1.95;;;33.20;33.50;;;;;;4987831;28;20045;-78
2022/08/29 11:46:08;;;;;;;5.15;2.08;;;33.20;34.20;;;;;;4987214;28;20550;-78
2022/08/29 11:48:38;;;;;;;5.75;1.98;;;33.30;33.90;;;;;;4970852;28;20045;-78
2022/08/29 11:51:32;;;;;;;5.68;1.98;;;33.40;33.70;;;;;;4952672;28;20035;-77
2022/08/29 11:54:38;;;;;;;4.80;1.55;;;33.50;32.60;;;;;;4998134;28;20038;-77
2022/08/29 11:57:03;;;;;;;4.47;2.00;;;33.60;32.80;;;;;;4979240;28;20049;-78
2022/08/29 11:59:47;;;;;;;3.28;1.63;;;33.80;34.10;;;;;;5008173;28;20034;-77
2022/08/29 12:02:38;;;;;;;4.22;1.50;;;33.90;32.10;;;;;;5003141;28;20134;-78
2022/08/29 12:05:16;;;;;;;4.15;1.35;;;34.00;31.80;;;;;;4992328;28;20030;-77
2022/08/29 12:08:00;;;;;;;4.40;1.65;;;34.10;32.50;;;;;;4987392;28;20136;-78
2022/08/29 12:10:28;;;;;;;4.82;1.50;;;34.20;32.00;;;;;;4986588;28;20049;-78
2022/08/29 12:12:59;;;;;;;3.70;1.80;;;34.30;32.20;;;;;;4979525;28;20034;-78
2022/08/29 12:15:37;;;;;;;;;;;34.40;31.90;;;;;;4985437;28;20038;-77
2022/08/29 12:18:11;;;;;;;4.07;1.30;;;34.50;32.00;;;;;;5002496;28;19929;-77
2022/08/29 12:20:45;;;;;;;7.22;1.77;;;34.70;31.80;;;;;;5000767;28;20037;-77
2022/08/29 12:23:13;;;;;;;2.25;1.30;;;34.80;31.00;;;;;;4976590;28;20038;-77
2022/08/29 12:25:45;;;;;;;3.33;1.45;;;34.90;31.30;;;;;;4982823;28;20102;-77
2022/08/29 12:28:20;;;;;;;3.88;1.50;;;34.90;31.00;;;;;;5001980;28;20030;-77
2022/08/29 12:30:47;;;;;;;5.18;2.15;;;35.00;30.20;;;;;;5002156;28;20041;-77
2022/08/29 12:33:35;;;;;;;3.47;1.65;;;35.00;30.40;;;;;;4969937;28;20046;-78
2022/08/29 12:36:34;;;;;;;6.18;1.75;;;35.10;30.40;;;;;;4997327;28;20038;-78
2022/08/29 12:39:14;;;;;;;3.20;1.40;;;35.20;29.80;;;;;;4988668;28;20055;-77
2022/08/29 12:41:59;;;;;;;4.97;1.48;;;35.30;29.70;;;;;;4959477;28;20054;-77
2022/08/29 12:44:58;;;;;;;3.42;1.60;;;35.30;30.00;;;;;;4982399;28;20073;-77
2022/08/29 12:47:34;;;;;;;2.70;1.33;;;35.40;30.00;;;;;;4944784;28;20031;-77
2022/08/29 12:50:01;;;;;;;2.05;1.50;;;35.40;29.90;;;;;;5000089;28;20030;-77
2022/08/29 12:52:33;;;;;;;4.93;1.80;;;35.40;29.80;;;;;;4970845;28;20038;-78
2022/08/29 12:55:18;;;;;;;3.67;1.60;;;35.50;29.70;;;;;;4970697;28;20062;-78
2022/08/29 12:57:44;;;;;;;2.30;1.38;;;35.70;29.80;;;;;;5003314;28;20038;-77
2022/08/29 13:00:35;;;;;;;3.00;1.40;;;35.80;29.80;;;;;;4967707;28;20053;-77
2022/08/29 13:03:02;;;;;;;;;;;35.90;29.40;;;;;;4999529;28;20042;-77
2022/08/29 13:05:31;;;;;;;1.88;1.30;;;35.90;29.60;;;;;;4984086;28;19941;-77